PAWN

Details ICAO PAWN (WTK)
Name NOATAK
Region USA (Alaska)
Timezone America/Nome (UTC-9.0)
Plans Departing 0
Arriving 0
Stats Elevation 88 ft / 27 m (AMSL)
Location 67.562083° -162.975033°
Runways 1
Magnetic Variation 11.376° E
Sunrise Unknown / Unknown
Sunset Unknown / Unknown
Advertisement - Login to hide

Runways

ID Width Length Bearing (true) Bearing (mag) Surface Threshold Offset Overrun Length
18 59 ft / 18 m 3,996 ft / 1,218 m 203.11° 191.73° Gravel 0 ft / 0 m 0 ft / 0 m
36 59 ft / 18 m 3,996 ft / 1,218 m 23.10° 11.72° Gravel 0 ft / 0 m 0 ft / 0 m

Map

Weather


0- 5 10 15 20 25 30 35+ Temperature / ° C

Clouds and Precipitation
Forecast for 2017-12-15 12:00 UTC. Updated an hour ago

Ground ~20,000 ft ~40,000 ft Winds

METAR

PAWN 151156Z AUTO 02004KT 10SM OVC037 M09/M11 A2964 RMK AO2 SLP052 60000 70003 T10941106 11050 21111 50002 FZRANO

TAF

Not found

Frequencies

Recorded 135.75 MHz AWOS 3
Unicom 122.40 MHz Kotzebue FSS
Unicom 122.80 MHz CTAF/UNICOM
Approach 119.20 MHz Anchorage ARTCC
Warning: Do not use this data for real-world aviation or navigation. No guarantee of current accuracy is given.